sensor_id;sensor_type;location;lat;lon;timestamp;P1;durP1;ratioP1;P2;durP2;ratioP2
11187;SDS011;5650;52.700;7.306;2023-05-10T00:00:47;12.52;;;11.18;;
11187;SDS011;5650;52.700;7.306;2023-05-10T00:03:17;12.85;;;11.43;;
11187;SDS011;5650;52.700;7.306;2023-05-10T00:05:44;12.50;;;11.32;;
11187;SDS011;5650;52.700;7.306;2023-05-10T00:08:14;12.27;;;11.07;;
11187;SDS011;5650;52.700;7.306;2023-05-10T00:10:42;11.85;;;10.85;;
11187;SDS011;5650;52.700;7.306;2023-05-10T00:13:09;13.75;;;11.63;;
11187;SDS011;5650;52.700;7.306;2023-05-10T00:15:36;11.93;;;10.88;;
11187;SDS011;5650;52.700;7.306;2023-05-10T00:18:05;14.13;;;11.35;;
11187;SDS011;5650;52.700;7.306;2023-05-10T00:20:32;12.40;;;11.27;;
11187;SDS011;5650;52.700;7.306;2023-05-10T00:23:00;11.77;;;10.68;;
11187;SDS011;5650;52.700;7.306;2023-05-10T00:25:33;11.48;;;10.48;;
11187;SDS011;5650;52.700;7.306;2023-05-10T00:28:00;12.45;;;11.25;;
11187;SDS011;5650;52.700;7.306;2023-05-10T00:30:27;12.27;;;11.13;;
11187;SDS011;5650;52.700;7.306;2023-05-10T00:32:57;13.43;;;12.02;;
11187;SDS011;5650;52.700;7.306;2023-05-10T00:35:27;13.10;;;11.90;;
11187;SDS011;5650;52.700;7.306;2023-05-10T00:37:54;13.07;;;11.85;;
11187;SDS011;5650;52.700;7.306;2023-05-10T00:40:21;13.18;;;11.90;;
11187;SDS011;5650;52.700;7.306;2023-05-10T00:42:49;13.38;;;12.07;;
11187;SDS011;5650;52.700;7.306;2023-05-10T00:45:21;19.48;;;11.68;;
11187;SDS011;5650;52.700;7.306;2023-05-10T00:47:53;14.20;;;12.88;;
11187;SDS011;5650;52.700;7.306;2023-05-10T00:50:23;14.95;;;13.45;;
11187;SDS011;5650;52.700;7.306;2023-05-10T00:53:01;14.82;;;13.43;;
11187;SDS011;5650;52.700;7.306;2023-05-10T00:55:30;14.55;;;13.15;;
11187;SDS011;5650;52.700;7.306;2023-05-10T00:57:57;14.75;;;13.23;;
11187;SDS011;5650;52.700;7.306;2023-05-10T01:00:33;14.60;;;12.95;;
11187;SDS011;5650;52.700;7.306;2023-05-10T01:03:01;13.23;;;12.02;;
11187;SDS011;5650;52.700;7.306;2023-05-10T01:05:30;8.05;;;7.22;;
11187;SDS011;5650;52.700;7.306;2023-05-10T01:08:01;5.15;;;4.65;;
11187;SDS011;5650;52.700;7.306;2023-05-10T01:10:28;4.43;;;4.07;;
11187;SDS011;5650;52.700;7.306;2023-05-10T01:12:56;4.43;;;4.03;;
11187;SDS011;5650;52.700;7.306;2023-05-10T01:15:23;4.43;;;4.03;;
11187;SDS011;5650;52.700;7.306;2023-05-10T01:17:50;6.47;;;4.35;;
11187;SDS011;5650;52.700;7.306;2023-05-10T01:20:18;7.07;;;4.45;;
11187;SDS011;5650;52.700;7.306;2023-05-10T01:23:10;6.20;;;5.10;;
11187;SDS011;5650;52.700;7.306;2023-05-10T01:26:14;8.40;;;5.22;;
11187;SDS011;5650;52.700;7.306;2023-05-10T01:29:11;7.38;;;4.93;;
11187;SDS011;5650;52.700;7.306;2023-05-10T01:34:54;6.50;;;5.90;;
11187;SDS011;5650;52.700;7.306;2023-05-10T01:37:31;7.25;;;6.65;;
11187;SDS011;5650;52.700;7.306;2023-05-10T01:40:08;8.23;;;7.53;;
11187;SDS011;5650;52.700;7.306;2023-05-10T01:42:46;9.02;;;8.23;;
11187;SDS011;5650;52.700;7.306;2023-05-10T01:45:27;9.50;;;8.70;;
11187;SDS011;5650;52.700;7.306;2023-05-10T01:48:01;10.38;;;9.35;;
11187;SDS011;5650;52.700;7.306;2023-05-10T01:50:32;10.23;;;9.32;;
11187;SDS011;5650;52.700;7.306;2023-05-10T01:53:01;11.32;;;10.25;;
11187;SDS011;5650;52.700;7.306;2023-05-10T01:55:35;11.48;;;10.27;;
11187;SDS011;5650;52.700;7.306;2023-05-10T01:58:10;10.48;;;9.43;;
11187;SDS011;5650;52.700;7.306;2023-05-10T02:00:40;10.98;;;9.98;;
11187;SDS011;5650;52.700;7.306;2023-05-10T02:03:12;11.90;;;10.80;;
11187;SDS011;5650;52.700;7.306;2023-05-10T02:05:44;11.48;;;10.48;;
11187;SDS011;5650;52.700;7.306;2023-05-10T02:08:14;11.88;;;10.68;;
11187;SDS011;5650;52.700;7.306;2023-05-10T02:10:46;12.95;;;11.80;;
11187;SDS011;5650;52.700;7.306;2023-05-10T02:13:23;11.70;;;10.60;;
11187;SDS011;5650;52.700;7.306;2023-05-10T02:15:52;13.30;;;11.95;;
11187;SDS011;5650;52.700;7.306;2023-05-10T02:21:09;14.02;;;12.45;;
11187;SDS011;5650;52.700;7.306;2023-05-10T02:23:37;14.10;;;12.70;;
11187;SDS011;5650;52.700;7.306;2023-05-10T02:26:05;14.60;;;13.20;;
11187;SDS011;5650;52.700;7.306;2023-05-10T02:28:37;14.32;;;12.82;;
11187;SDS011;5650;52.700;7.306;2023-05-10T02:31:05;14.30;;;12.90;;
11187;SDS011;5650;52.700;7.306;2023-05-10T02:33:34;13.95;;;12.52;;
11187;SDS011;5650;52.700;7.306;2023-05-10T02:36:10;14.45;;;13.05;;
11187;SDS011;5650;52.700;7.306;2023-05-10T02:38:40;13.20;;;12.07;;
11187;SDS011;5650;52.700;7.306;2023-05-10T02:41:08;13.85;;;12.55;;
11187;SDS011;5650;52.700;7.306;2023-05-10T02:43:39;14.52;;;13.02;;
11187;SDS011;5650;52.700;7.306;2023-05-10T02:46:11;17.17;;;13.30;;
11187;SDS011;5650;52.700;7.306;2023-05-10T02:48:38;12.82;;;11.65;;
11187;SDS011;5650;52.700;7.306;2023-05-10T02:51:08;14.90;;;13.50;;
11187;SDS011;5650;52.700;7.306;2023-05-10T02:53:40;15.48;;;14.07;;
11187;SDS011;5650;52.700;7.306;2023-05-10T02:56:23;14.82;;;13.32;;
11187;SDS011;5650;52.700;7.306;2023-05-10T02:58:55;15.48;;;13.93;;
11187;SDS011;5650;52.700;7.306;2023-05-10T03:01:25;15.23;;;13.73;;
11187;SDS011;5650;52.700;7.306;2023-05-10T03:03:52;14.50;;;13.10;;
11187;SDS011;5650;52.700;7.306;2023-05-10T03:06:24;14.88;;;13.48;;
11187;SDS011;5650;52.700;7.306;2023-05-10T03:08:54;14.77;;;13.45;;
11187;SDS011;5650;52.700;7.306;2023-05-10T03:11:32;14.27;;;12.95;;
11187;SDS011;5650;52.700;7.306;2023-05-10T03:14:08;14.15;;;12.77;;
11187;SDS011;5650;52.700;7.306;2023-05-10T03:16:52;14.95;;;13.55;;
11187;SDS011;5650;52.700;7.306;2023-05-10T03:19:32;14.43;;;13.13;;
11187;SDS011;5650;52.700;7.306;2023-05-10T03:22:08;13.88;;;12.68;;
11187;SDS011;5650;52.700;7.306;2023-05-10T03:24:37;13.40;;;12.13;;
11187;SDS011;5650;52.700;7.306;2023-05-10T03:27:07;13.98;;;12.68;;
11187;SDS011;5650;52.700;7.306;2023-05-10T03:29:35;14.38;;;12.95;;
11187;SDS011;5650;52.700;7.306;2023-05-10T03:32:06;14.43;;;13.02;;
11187;SDS011;5650;52.700;7.306;2023-05-10T03:34:40;14.98;;;13.48;;
11187;SDS011;5650;52.700;7.306;2023-05-10T03:37:10;17.08;;;13.00;;
11187;SDS011;5650;52.700;7.306;2023-05-10T03:39:37;14.05;;;12.68;;
11187;SDS011;5650;52.700;7.306;2023-05-10T03:42:06;13.55;;;12.25;;
11187;SDS011;5650;52.700;7.306;2023-05-10T03:44:36;14.05;;;12.65;;
11187;SDS011;5650;52.700;7.306;2023-05-10T03:47:04;13.77;;;12.50;;
11187;SDS011;5650;52.700;7.306;2023-05-10T03:49:31;12.68;;;11.45;;
11187;SDS011;5650;52.700;7.306;2023-05-10T03:51:58;12.88;;;11.68;;
11187;SDS011;5650;52.700;7.306;2023-05-10T03:54:27;12.65;;;11.50;;
11187;SDS011;5650;52.700;7.306;2023-05-10T03:56:54;13.20;;;11.98;;
11187;SDS011;5650;52.700;7.306;2023-05-10T03:59:21;13.10;;;11.80;;
11187;SDS011;5650;52.700;7.306;2023-05-10T04:01:48;13.88;;;12.57;;
11187;SDS011;5650;52.700;7.306;2023-05-10T04:04:19;13.05;;;11.80;;
11187;SDS011;5650;52.700;7.306;2023-05-10T04:06:47;12.57;;;11.35;;
11187;SDS011;5650;52.700;7.306;2023-05-10T04:09:20;13.32;;;11.45;;
11187;SDS011;5650;52.700;7.306;2023-05-10T04:12:03;12.32;;;11.13;;
11187;SDS011;5650;52.700;7.306;2023-05-10T04:14:31;12.52;;;11.23;;
11187;SDS011;5650;52.700;7.306;2023-05-10T04:16:58;12.95;;;11.65;;
11187;SDS011;5650;52.700;7.306;2023-05-10T04:19:28;12.20;;;10.93;;
11187;SDS011;5650;52.700;7.306;2023-05-10T04:21:56;12.27;;;11.10;;
11187;SDS011;5650;52.700;7.306;2023-05-10T04:24:23;12.77;;;11.43;;
11187;SDS011;5650;52.700;7.306;2023-05-10T04:26:51;13.07;;;11.43;;
11187;SDS011;5650;52.700;7.306;2023-05-10T04:29:21;12.98;;;11.05;;
11187;SDS011;5650;52.700;7.306;2023-05-10T04:31:48;12.52;;;11.20;;
11187;SDS011;5650;52.700;7.306;2023-05-10T04:34:16;12.05;;;10.85;;
11187;SDS011;5650;52.700;7.306;2023-05-10T04:36:43;12.85;;;10.82;;
11187;SDS011;5650;52.700;7.306;2023-05-10T04:39:11;12.05;;;10.85;;
11187;SDS011;5650;52.700;7.306;2023-05-10T04:41:38;11.57;;;10.45;;
11187;SDS011;5650;52.700;7.306;2023-05-10T04:44:08;11.73;;;10.73;;
11187;SDS011;5650;52.700;7.306;2023-05-10T04:46:37;12.15;;;10.95;;
11187;SDS011;5650;52.700;7.306;2023-05-10T04:49:04;12.60;;;11.30;;
11187;SDS011;5650;52.700;7.306;2023-05-10T04:51:31;13.43;;;11.18;;
11187;SDS011;5650;52.700;7.306;2023-05-10T04:53:59;11.57;;;10.40;;
11187;SDS011;5650;52.700;7.306;2023-05-10T04:56:26;11.32;;;10.23;;
11187;SDS011;5650;52.700;7.306;2023-05-10T04:58:53;11.75;;;9.80;;
11187;SDS011;5650;52.700;7.306;2023-05-10T05:01:20;10.68;;;9.68;;
11187;SDS011;5650;52.700;7.306;2023-05-10T05:03:49;11.10;;;10.05;;
11187;SDS011;5650;52.700;7.306;2023-05-10T05:06:17;12.35;;;10.57;;
11187;SDS011;5650;52.700;7.306;2023-05-10T05:08:45;10.80;;;9.75;;
11187;SDS011;5650;52.700;7.306;2023-05-10T05:11:14;11.65;;;10.48;;
11187;SDS011;5650;52.700;7.306;2023-05-10T05:13:42;12.05;;;10.52;;
11187;SDS011;5650;52.700;7.306;2023-05-10T05:16:09;10.15;;;9.00;;
11187;SDS011;5650;52.700;7.306;2023-05-10T05:18:36;11.23;;;9.48;;
11187;SDS011;5650;52.700;7.306;2023-05-10T05:21:14;9.95;;;8.68;;
11187;SDS011;5650;52.700;7.306;2023-05-10T05:23:42;8.95;;;8.02;;
11187;SDS011;5650;52.700;7.306;2023-05-10T05:26:09;10.57;;;8.35;;
11187;SDS011;5650;52.700;7.306;2023-05-10T05:28:42;10.95;;;8.48;;
11187;SDS011;5650;52.700;7.306;2023-05-10T05:31:10;9.45;;;7.97;;
11187;SDS011;5650;52.700;7.306;2023-05-10T05:33:40;10.25;;;7.70;;
11187;SDS011;5650;52.700;7.306;2023-05-10T05:36:07;10.50;;;8.80;;
11187;SDS011;5650;52.700;7.306;2023-05-10T05:38:38;10.68;;;9.48;;
11187;SDS011;5650;52.700;7.306;2023-05-10T05:41:06;10.52;;;8.80;;
11187;SDS011;5650;52.700;7.306;2023-05-10T05:43:33;10.43;;;8.95;;
11187;SDS011;5650;52.700;7.306;2023-05-10T05:46:05;9.50;;;8.60;;
11187;SDS011;5650;52.700;7.306;2023-05-10T05:48:32;11.90;;;9.07;;
11187;SDS011;5650;52.700;7.306;2023-05-10T05:51:00;12.93;;;8.65;;
11187;SDS011;5650;52.700;7.306;2023-05-10T05:53:27;8.65;;;7.70;;
11187;SDS011;5650;52.700;7.306;2023-05-10T05:55:56;8.93;;;7.68;;
11187;SDS011;5650;52.700;7.306;2023-05-10T05:58:25;9.88;;;7.47;;
11187;SDS011;5650;52.700;7.306;2023-05-10T06:00:53;9.73;;;6.90;;
11187;SDS011;5650;52.700;7.306;2023-05-10T06:03:20;10.05;;;7.68;;
11187;SDS011;5650;52.700;7.306;2023-05-10T06:05:47;8.70;;;7.18;;
11187;SDS011;5650;52.700;7.306;2023-05-10T06:08:15;7.40;;;6.70;;
11187;SDS011;5650;52.700;7.306;2023-05-10T06:10:42;9.30;;;6.85;;
11187;SDS011;5650;52.700;7.306;2023-05-10T06:13:15;9.18;;;6.43;;
11187;SDS011;5650;52.700;7.306;2023-05-10T06:15:42;8.32;;;6.15;;
11187;SDS011;5650;52.700;7.306;2023-05-10T06:18:15;11.05;;;6.20;;
11187;SDS011;5650;52.700;7.306;2023-05-10T06:20:45;8.20;;;5.60;;
11187;SDS011;5650;52.700;7.306;2023-05-10T06:23:15;7.25;;;5.63;;
11187;SDS011;5650;52.700;7.306;2023-05-10T06:25:45;7.15;;;5.07;;
11187;SDS011;5650;52.700;7.306;2023-05-10T06:28:12;8.20;;;5.78;;
11187;SDS011;5650;52.700;7.306;2023-05-10T06:30:44;7.57;;;5.65;;
11187;SDS011;5650;52.700;7.306;2023-05-10T06:33:11;7.60;;;5.45;;
11187;SDS011;5650;52.700;7.306;2023-05-10T06:35:47;10.77;;;6.13;;
11187;SDS011;5650;52.700;7.306;2023-05-10T06:38:15;6.43;;;5.28;;
11187;SDS011;5650;52.700;7.306;2023-05-10T06:40:42;7.07;;;5.07;;
11187;SDS011;5650;52.700;7.306;2023-05-10T06:43:14;7.53;;;4.72;;
11187;SDS011;5650;52.700;7.306;2023-05-10T06:45:44;6.80;;;5.00;;
11187;SDS011;5650;52.700;7.306;2023-05-10T06:48:18;7.45;;;5.20;;
11187;SDS011;5650;52.700;7.306;2023-05-10T06:50:45;8.05;;;5.03;;
11187;SDS011;5650;52.700;7.306;2023-05-10T06:53:18;8.05;;;5.15;;
11187;SDS011;5650;52.700;7.306;2023-05-10T06:55:51;7.13;;;5.00;;
11187;SDS011;5650;52.700;7.306;2023-05-10T06:58:20;9.38;;;5.57;;
11187;SDS011;5650;52.700;7.306;2023-05-10T07:00:47;9.38;;;5.13;;
11187;SDS011;5650;52.700;7.306;2023-05-10T07:03:17;8.75;;;4.80;;
11187;SDS011;5650;52.700;7.306;2023-05-10T07:05:50;9.68;;;5.43;;
11187;SDS011;5650;52.700;7.306;2023-05-10T07:08:17;8.48;;;4.70;;
11187;SDS011;5650;52.700;7.306;2023-05-10T07:10:44;8.60;;;5.05;;
11187;SDS011;5650;52.700;7.306;2023-05-10T07:13:15;8.48;;;4.90;;
11187;SDS011;5650;52.700;7.306;2023-05-10T07:15:46;7.78;;;4.70;;
11187;SDS011;5650;52.700;7.306;2023-05-10T07:18:14;8.75;;;5.25;;
11187;SDS011;5650;52.700;7.306;2023-05-10T07:20:51;9.55;;;4.70;;
11187;SDS011;5650;52.700;7.306;2023-05-10T07:23:25;6.70;;;4.57;;
11187;SDS011;5650;52.700;7.306;2023-05-10T07:25:55;6.93;;;4.63;;
11187;SDS011;5650;52.700;7.306;2023-05-10T07:28:23;9.52;;;4.40;;
11187;SDS011;5650;52.700;7.306;2023-05-10T07:30:52;7.45;;;4.50;;
11187;SDS011;5650;52.700;7.306;2023-05-10T07:33:19;7.72;;;4.80;;
11187;SDS011;5650;52.700;7.306;2023-05-10T07:35:46;6.68;;;4.65;;
11187;SDS011;5650;52.700;7.306;2023-05-10T07:38:13;6.63;;;5.03;;
11187;SDS011;5650;52.700;7.306;2023-05-10T07:40:43;6.63;;;5.28;;
11187;SDS011;5650;52.700;7.306;2023-05-10T07:43:13;7.82;;;5.35;;
11187;SDS011;5650;52.700;7.306;2023-05-10T07:45:43;7.93;;;4.60;;
11187;SDS011;5650;52.700;7.306;2023-05-10T07:48:12;8.13;;;4.68;;
11187;SDS011;5650;52.700;7.306;2023-05-10T07:50:42;8.50;;;4.65;;
11187;SDS011;5650;52.700;7.306;2023-05-10T07:53:09;7.65;;;4.20;;
11187;SDS011;5650;52.700;7.306;2023-05-10T07:55:36;9.18;;;4.50;;
11187;SDS011;5650;52.700;7.306;2023-05-10T07:58:04;8.82;;;4.82;;
11187;SDS011;5650;52.700;7.306;2023-05-10T08:00:34;11.15;;;5.03;;
11187;SDS011;5650;52.700;7.306;2023-05-10T08:03:04;9.00;;;4.50;;
11187;SDS011;5650;52.700;7.306;2023-05-10T08:05:35;10.30;;;4.97;;
11187;SDS011;5650;52.700;7.306;2023-05-10T08:08:08;6.38;;;4.63;;
11187;SDS011;5650;52.700;7.306;2023-05-10T08:10:35;5.72;;;4.65;;
11187;SDS011;5650;52.700;7.306;2023-05-10T08:13:05;7.28;;;4.25;;
11187;SDS011;5650;52.700;7.306;2023-05-10T08:15:32;6.00;;;3.92;;
11187;SDS011;5650;52.700;7.306;2023-05-10T08:18:03;6.45;;;4.45;;
11187;SDS011;5650;52.700;7.306;2023-05-10T08:20:37;7.30;;;4.80;;
11187;SDS011;5650;52.700;7.306;2023-05-10T08:23:07;6.95;;;4.53;;
11187;SDS011;5650;52.700;7.306;2023-05-10T08:25:35;8.40;;;4.03;;
11187;SDS011;5650;52.700;7.306;2023-05-10T08:28:08;6.60;;;4.15;;
11187;SDS011;5650;52.700;7.306;2023-05-10T08:30:41;9.23;;;4.30;;
11187;SDS011;5650;52.700;7.306;2023-05-10T08:33:28;5.05;;;3.95;;
11187;SDS011;5650;52.700;7.306;2023-05-10T08:35:56;5.53;;;4.00;;
11187;SDS011;5650;52.700;7.306;2023-05-10T08:38:26;5.20;;;4.07;;
11187;SDS011;5650;52.700;7.306;2023-05-10T08:40:54;5.95;;;3.60;;
11187;SDS011;5650;52.700;7.306;2023-05-10T08:43:27;6.80;;;3.50;;
11187;SDS011;5650;52.700;7.306;2023-05-10T08:45:59;6.75;;;3.58;;
11187;SDS011;5650;52.700;7.306;2023-05-10T08:48:30;9.02;;;3.97;;
11187;SDS011;5650;52.700;7.306;2023-05-10T08:51:03;6.90;;;3.33;;
11187;SDS011;5650;52.700;7.306;2023-05-10T08:53:30;5.40;;;3.15;;
11187;SDS011;5650;52.700;7.306;2023-05-10T08:56:00;7.18;;;3.83;;
11187;SDS011;5650;52.700;7.306;2023-05-10T08:58:31;4.63;;;3.50;;
11187;SDS011;5650;52.700;7.306;2023-05-10T09:00:58;4.60;;;2.88;;
11187;SDS011;5650;52.700;7.306;2023-05-10T09:03:31;6.03;;;3.22;;
11187;SDS011;5650;52.700;7.306;2023-05-10T09:05:58;3.63;;;3.08;;
11187;SDS011;5650;52.700;7.306;2023-05-10T09:08:30;3.42;;;2.97;;
11187;SDS011;5650;52.700;7.306;2023-05-10T09:10:58;3.28;;;2.65;;
11187;SDS011;5650;52.700;7.306;2023-05-10T09:13:30;3.50;;;2.88;;
11187;SDS011;5650;52.700;7.306;2023-05-10T09:15:59;7.88;;;3.53;;
11187;SDS011;5650;52.700;7.306;2023-05-10T09:18:30;5.95;;;3.15;;
11187;SDS011;5650;52.700;7.306;2023-05-10T09:20:58;3.80;;;3.20;;
11187;SDS011;5650;52.700;7.306;2023-05-10T09:23:29;3.38;;;2.88;;
11187;SDS011;5650;52.700;7.306;2023-05-10T09:26:03;5.47;;;3.10;;
11187;SDS011;5650;52.700;7.306;2023-05-10T09:28:33;5.07;;;3.40;;
11187;SDS011;5650;52.700;7.306;2023-05-10T09:31:16;10.07;;;3.92;;
11187;SDS011;5650;52.700;7.306;2023-05-10T09:33:43;3.80;;;3.38;;
11187;SDS011;5650;52.700;7.306;2023-05-10T09:36:11;5.35;;;3.72;;
11187;SDS011;5650;52.700;7.306;2023-05-10T09:38:46;4.22;;;3.60;;
11187;SDS011;5650;52.700;7.306;2023-05-10T09:41:17;6.88;;;3.60;;
11187;SDS011;5650;52.700;7.306;2023-05-10T09:43:46;4.15;;;3.45;;
11187;SDS011;5650;52.700;7.306;2023-05-10T09:46:13;6.65;;;3.92;;
11187;SDS011;5650;52.700;7.306;2023-05-10T09:48:42;3.90;;;3.40;;
11187;SDS011;5650;52.700;7.306;2023-05-10T09:51:17;4.28;;;3.30;;
11187;SDS011;5650;52.700;7.306;2023-05-10T09:53:47;6.38;;;3.88;;
11187;SDS011;5650;52.700;7.306;2023-05-10T09:59:16;5.88;;;3.53;;
11187;SDS011;5650;52.700;7.306;2023-05-10T10:01:48;5.43;;;3.33;;
11187;SDS011;5650;52.700;7.306;2023-05-10T10:04:25;7.80;;;2.92;;
11187;SDS011;5650;52.700;7.306;2023-05-10T10:07:03;4.07;;;2.80;;
11187;SDS011;5650;52.700;7.306;2023-05-10T10:09:33;3.90;;;2.30;;
11187;SDS011;5650;52.700;7.306;2023-05-10T10:12:04;2.75;;;2.35;;
11187;SDS011;5650;52.700;7.306;2023-05-10T10:14:31;3.55;;;2.10;;
11187;SDS011;5650;52.700;7.306;2023-05-10T10:17:03;3.38;;;2.08;;
11187;SDS011;5650;52.700;7.306;2023-05-10T10:19:30;2.53;;;2.00;;
11187;SDS011;5650;52.700;7.306;2023-05-10T10:22:02;3.60;;;2.58;;
11187;SDS011;5650;52.700;7.306;2023-05-10T10:24:44;5.25;;;2.20;;
11187;SDS011;5650;52.700;7.306;2023-05-10T10:27:18;3.50;;;2.20;;
11187;SDS011;5650;52.700;7.306;2023-05-10T10:29:52;3.42;;;2.67;;
11187;SDS011;5650;52.700;7.306;2023-05-10T10:32:33;3.55;;;2.30;;
11187;SDS011;5650;52.700;7.306;2023-05-10T10:35:16;4.50;;;2.45;;
11187;SDS011;5650;52.700;7.306;2023-05-10T10:37:50;4.63;;;2.20;;
11187;SDS011;5650;52.700;7.306;2023-05-10T10:40:26;4.68;;;2.25;;
11187;SDS011;5650;52.700;7.306;2023-05-10T10:42:57;4.50;;;2.47;;
11187;SDS011;5650;52.700;7.306;2023-05-10T10:45:24;3.05;;;2.10;;
11187;SDS011;5650;52.700;7.306;2023-05-10T10:50:56;5.15;;;2.42;;
11187;SDS011;5650;52.700;7.306;2023-05-10T10:53:33;3.90;;;2.50;;
11187;SDS011;5650;52.700;7.306;2023-05-10T10:56:08;3.83;;;2.13;;
11187;SDS011;5650;52.700;7.306;2023-05-10T10:58:37;3.58;;;2.42;;
11187;SDS011;5650;52.700;7.306;2023-05-10T11:01:14;3.88;;;2.53;;
11187;SDS011;5650;52.700;7.306;2023-05-10T11:03:54;2.60;;;2.30;;
11187;SDS011;5650;52.700;7.306;2023-05-10T11:06:50;4.68;;;2.58;;
11187;SDS011;5650;52.700;7.306;2023-05-10T11:09:40;5.82;;;2.35;;
11187;SDS011;5650;52.700;7.306;2023-05-10T11:12:09;5.65;;;2.40;;
11187;SDS011;5650;52.700;7.306;2023-05-10T11:14:36;2.28;;;2.08;;
11187;SDS011;5650;52.700;7.306;2023-05-10T11:20:07;3.58;;;2.17;;
11187;SDS011;5650;52.700;7.306;2023-05-10T11:22:50;3.17;;;2.20;;
11187;SDS011;5650;52.700;7.306;2023-05-10T11:25:28;2.63;;;2.10;;
11187;SDS011;5650;52.700;7.306;2023-05-10T11:27:59;2.00;;;1.80;;
11187;SDS011;5650;52.700;7.306;2023-05-10T11:30:30;2.55;;;1.95;;
11187;SDS011;5650;52.700;7.306;2023-05-10T11:32:57;2.22;;;1.77;;
11187;SDS011;5650;52.700;7.306;2023-05-10T11:35:28;4.57;;;2.03;;
11187;SDS011;5650;52.700;7.306;2023-05-10T11:37:55;3.70;;;1.92;;
11187;SDS011;5650;52.700;7.306;2023-05-10T11:40:22;2.72;;;2.00;;
11187;SDS011;5650;52.700;7.306;2023-05-10T11:42:56;2.08;;;1.77;;
11187;SDS011;5650;52.700;7.306;2023-05-10T11:45:30;2.63;;;1.88;;
11187;SDS011;5650;52.700;7.306;2023-05-10T11:47:59;3.92;;;2.00;;
11187;SDS011;5650;52.700;7.306;2023-05-10T11:50:27;2.70;;;1.80;;
11187;SDS011;5650;52.700;7.306;2023-05-10T11:52:55;5.20;;;1.48;;
11187;SDS011;5650;52.700;7.306;2023-05-10T11:55:23;6.53;;;1.90;;
11187;SDS011;5650;52.700;7.306;2023-05-10T11:57:54;5.32;;;2.00;;
11187;SDS011;5650;52.700;7.306;2023-05-10T12:00:21;2.78;;;1.65;;
11187;SDS011;5650;52.700;7.306;2023-05-10T12:02:50;2.50;;;1.42;;
11187;SDS011;5650;52.700;7.306;2023-05-10T12:05:17;2.15;;;1.70;;
11187;SDS011;5650;52.700;7.306;2023-05-10T12:07:47;3.38;;;1.80;;
11187;SDS011;5650;52.700;7.306;2023-05-10T12:10:15;3.88;;;1.80;;
11187;SDS011;5650;52.700;7.306;2023-05-10T12:12:43;2.92;;;2.03;;
11187;SDS011;5650;52.700;7.306;2023-05-10T12:15:12;3.08;;;2.33;;
11187;SDS011;5650;52.700;7.306;2023-05-10T12:17:51;3.40;;;2.20;;
11187;SDS011;5650;52.700;7.306;2023-05-10T12:20:18;2.78;;;2.30;;
11187;SDS011;5650;52.700;7.306;2023-05-10T12:22:47;2.75;;;2.50;;
11187;SDS011;5650;52.700;7.306;2023-05-10T12:25:17;3.42;;;2.78;;
11187;SDS011;5650;52.700;7.306;2023-05-10T12:27:48;3.85;;;2.53;;
11187;SDS011;5650;52.700;7.306;2023-05-10T12:30:20;3.67;;;2.60;;
11187;SDS011;5650;52.700;7.306;2023-05-10T12:33:00;3.20;;;2.63;;
11187;SDS011;5650;52.700;7.306;2023-05-10T12:35:31;3.95;;;2.38;;
11187;SDS011;5650;52.700;7.306;2023-05-10T12:37:59;3.88;;;2.47;;
11187;SDS011;5650;52.700;7.306;2023-05-10T12:40:26;3.75;;;2.92;;
11187;SDS011;5650;52.700;7.306;2023-05-10T12:42:56;7.10;;;3.15;;
11187;SDS011;5650;52.700;7.306;2023-05-10T12:45:23;4.00;;;3.00;;
11187;SDS011;5650;52.700;7.306;2023-05-10T12:47:51;4.40;;;3.22;;
11187;SDS011;5650;52.700;7.306;2023-05-10T12:50:19;5.95;;;3.45;;
11187;SDS011;5650;52.700;7.306;2023-05-10T12:52:46;4.13;;;3.33;;
11187;SDS011;5650;52.700;7.306;2023-05-10T12:55:13;4.25;;;2.90;;
11187;SDS011;5650;52.700;7.306;2023-05-10T12:57:43;4.43;;;3.40;;
11187;SDS011;5650;52.700;7.306;2023-05-10T13:00:13;4.85;;;3.55;;
11187;SDS011;5650;52.700;7.306;2023-05-10T13:02:48;5.90;;;3.92;;
11187;SDS011;5650;52.700;7.306;2023-05-10T13:05:16;5.90;;;3.42;;
11187;SDS011;5650;52.700;7.306;2023-05-10T13:07:44;4.55;;;3.60;;
11187;SDS011;5650;52.700;7.306;2023-05-10T13:10:11;4.78;;;3.42;;
11187;SDS011;5650;52.700;7.306;2023-05-10T13:12:39;4.53;;;3.05;;
11187;SDS011;5650;52.700;7.306;2023-05-10T13:15:06;3.30;;;3.00;;
11187;SDS011;5650;52.700;7.306;2023-05-10T13:17:34;4.22;;;3.35;;
11187;SDS011;5650;52.700;7.306;2023-05-10T13:20:04;5.25;;;3.53;;
11187;SDS011;5650;52.700;7.306;2023-05-10T13:22:32;4.07;;;3.33;;
11187;SDS011;5650;52.700;7.306;2023-05-10T13:25:01;4.15;;;3.75;;
11187;SDS011;5650;52.700;7.306;2023-05-10T13:27:28;5.25;;;3.67;;
11187;SDS011;5650;52.700;7.306;2023-05-10T13:29:55;5.20;;;4.07;;
11187;SDS011;5650;52.700;7.306;2023-05-10T13:32:24;5.82;;;3.90;;
11187;SDS011;5650;52.700;7.306;2023-05-10T13:34:51;4.18;;;3.78;;
11187;SDS011;5650;52.700;7.306;2023-05-10T13:37:19;7.47;;;4.63;;
11187;SDS011;5650;52.700;7.306;2023-05-10T13:39:46;4.88;;;3.97;;
11187;SDS011;5650;52.700;7.306;2023-05-10T13:42:15;5.35;;;4.22;;
11187;SDS011;5650;52.700;7.306;2023-05-10T13:44:43;8.63;;;4.50;;
11187;SDS011;5650;52.700;7.306;2023-05-10T13:47:11;7.68;;;4.20;;
11187;SDS011;5650;52.700;7.306;2023-05-10T13:49:38;5.57;;;4.05;;
11187;SDS011;5650;52.700;7.306;2023-05-10T13:52:05;7.40;;;4.22;;
11187;SDS011;5650;52.700;7.306;2023-05-10T13:54:32;6.60;;;4.45;;
11187;SDS011;5650;52.700;7.306;2023-05-10T13:57:00;4.57;;;3.75;;
11187;SDS011;5650;52.700;7.306;2023-05-10T13:59:29;5.20;;;4.30;;
11187;SDS011;5650;52.700;7.306;2023-05-10T14:01:57;4.95;;;3.65;;
11187;SDS011;5650;52.700;7.306;2023-05-10T14:04:24;5.55;;;4.50;;
11187;SDS011;5650;52.700;7.306;2023-05-10T14:06:52;6.13;;;4.32;;
11187;SDS011;5650;52.700;7.306;2023-05-10T14:09:19;6.35;;;4.68;;
11187;SDS011;5650;52.700;7.306;2023-05-10T14:11:46;6.72;;;4.40;;
11187;SDS011;5650;52.700;7.306;2023-05-10T14:14:14;6.70;;;5.10;;
11187;SDS011;5650;52.700;7.306;2023-05-10T14:16:43;9.15;;;5.50;;
11187;SDS011;5650;52.700;7.306;2023-05-10T14:19:11;6.22;;;4.85;;
11187;SDS011;5650;52.700;7.306;2023-05-10T14:21:38;5.47;;;4.90;;
11187;SDS011;5650;52.700;7.306;2023-05-10T14:24:06;9.60;;;6.13;;
11187;SDS011;5650;52.700;7.306;2023-05-10T14:26:33;6.82;;;5.88;;
11187;SDS011;5650;52.700;7.306;2023-05-10T14:29:00;9.20;;;6.15;;
11187;SDS011;5650;52.700;7.306;2023-05-10T14:31:27;8.85;;;5.75;;
11187;SDS011;5650;52.700;7.306;2023-05-10T14:33:57;12.02;;;6.63;;
11187;SDS011;5650;52.700;7.306;2023-05-10T14:36:24;6.65;;;6.00;;
11187;SDS011;5650;52.700;7.306;2023-05-10T14:38:51;8.88;;;6.47;;
11187;SDS011;5650;52.700;7.306;2023-05-10T14:41:19;7.57;;;6.10;;
11187;SDS011;5650;52.700;7.306;2023-05-10T14:43:46;6.95;;;5.68;;
11187;SDS011;5650;52.700;7.306;2023-05-10T14:46:13;7.72;;;5.45;;
11187;SDS011;5650;52.700;7.306;2023-05-10T14:48:41;6.93;;;5.95;;
11187;SDS011;5650;52.700;7.306;2023-05-10T14:51:09;10.02;;;5.65;;
11187;SDS011;5650;52.700;7.306;2023-05-10T14:53:36;6.68;;;5.00;;
11187;SDS011;5650;52.700;7.306;2023-05-10T14:56:04;7.28;;;5.70;;
11187;SDS011;5650;52.700;7.306;2023-05-10T14:58:31;8.02;;;5.72;;
11187;SDS011;5650;52.700;7.306;2023-05-10T15:00:58;7.75;;;5.63;;
11187;SDS011;5650;52.700;7.306;2023-05-10T15:03:26;9.55;;;6.55;;
11187;SDS011;5650;52.700;7.306;2023-05-10T15:05:53;7.03;;;6.18;;
11187;SDS011;5650;52.700;7.306;2023-05-10T15:08:22;6.88;;;6.18;;
11187;SDS011;5650;52.700;7.306;2023-05-10T15:10:50;7.10;;;6.40;;
11187;SDS011;5650;52.700;7.306;2023-05-10T15:13:17;6.90;;;6.20;;
11187;SDS011;5650;52.700;7.306;2023-05-10T15:15:44;7.47;;;5.47;;
11187;SDS011;5650;52.700;7.306;2023-05-10T15:18:12;8.93;;;5.60;;
11187;SDS011;5650;52.700;7.306;2023-05-10T15:20:39;7.97;;;4.93;;
11187;SDS011;5650;52.700;7.306;2023-05-10T15:23:06;5.15;;;4.10;;
11187;SDS011;5650;52.700;7.306;2023-05-10T15:25:35;6.43;;;4.07;;